createdAt,value
2022-10-07T00:00:01.817Z,2.80
2022-10-07T00:05:06.144Z,2.47
2022-10-07T00:10:08.240Z,2.17
2022-10-07T00:15:10.454Z,2.67
2022-10-07T00:20:12.117Z,2.93
2022-10-07T00:25:14.245Z,2.10
2022-10-07T00:30:15.913Z,2.07
2022-10-07T00:35:17.512Z,2.53
2022-10-07T00:40:19.194Z,2.20
2022-10-07T00:45:21.909Z,2.60
2022-10-07T00:50:27.677Z,2.33
2022-10-07T00:55:31.227Z,2.30
2022-10-07T01:00:32.954Z,2.40
2022-10-07T01:05:34.627Z,2.30
2022-10-07T01:10:48.126Z,2.30
2022-10-07T01:15:57.352Z,2.00
2022-10-07T01:21:03.957Z,2.13
2022-10-07T01:26:31.700Z,2.40
2022-10-07T01:31:37.997Z,2.40
2022-10-07T01:36:40.549Z,2.63
2022-10-07T01:41:42.081Z,2.53
2022-10-07T01:46:43.884Z,2.30
2022-10-07T01:51:58.858Z,2.50
2022-10-07T01:57:27.609Z,2.40
2022-10-07T02:03:01.581Z,2.63
2022-10-07T02:08:20.132Z,2.77
2022-10-07T02:13:44.862Z,2.50
2022-10-07T02:18:50.298Z,2.60
2022-10-07T02:23:55.455Z,2.43
2022-10-07T02:28:58.336Z,2.10
2022-10-07T02:34:03.349Z,2.57
2022-10-07T02:39:05.344Z,2.50
2022-10-07T02:44:25.928Z,2.73
2022-10-07T02:49:30.390Z,2.53
2022-10-07T02:54:35.273Z,2.33
2022-10-07T02:59:38.091Z,2.10
2022-10-07T03:04:40.303Z,2.30
2022-10-07T03:09:42.556Z,2.30
2022-10-07T03:14:50.008Z,2.10
2022-10-07T03:19:53.401Z,2.33
2022-10-07T03:24:55.704Z,2.53
2022-10-07T03:29:58.605Z,2.50
2022-10-07T03:35:00.967Z,2.73
2022-10-07T03:40:03.892Z,2.43
2022-10-07T03:45:06.641Z,2.93
2022-10-07T03:50:08.799Z,3.00
2022-10-07T03:55:10.673Z,2.53
2022-10-07T04:00:13.137Z,2.50
2022-10-07T04:05:23.174Z,2.80
2022-10-07T04:10:25.975Z,2.60
2022-10-07T04:15:27.988Z,2.60
2022-10-07T04:20:30.028Z,2.50
2022-10-07T04:25:35.392Z,2.53
2022-10-07T04:30:43.739Z,2.70
2022-10-07T04:35:48.696Z,2.37
2022-10-07T04:40:51.322Z,2.50
2022-10-07T04:46:06.457Z,2.63
2022-10-07T04:51:12.025Z,2.80
2022-10-07T04:56:16.277Z,2.80
2022-10-07T05:01:18.112Z,2.57
2022-10-07T05:06:22.329Z,2.60
2022-10-07T05:11:25.825Z,2.50
2022-10-07T05:16:36.451Z,3.00
2022-10-07T05:21:39.992Z,2.60
2022-10-07T05:26:41.823Z,2.57
2022-10-07T05:31:44.436Z,2.87
2022-10-07T05:36:48.194Z,3.50
2022-10-07T05:41:50.144Z,2.60
2022-10-07T05:46:55.785Z,2.90
2022-10-07T05:51:58.511Z,3.57
2022-10-07T05:57:00.654Z,2.83
2022-10-07T06:02:03.857Z,2.80
2022-10-07T06:07:07.595Z,2.97
2022-10-07T06:12:29.464Z,3.03
2022-10-07T06:17:33.184Z,4.07
2022-10-07T06:22:37.735Z,3.40
2022-10-07T06:27:39.677Z,3.23
2022-10-07T06:32:41.422Z,3.20
2022-10-07T06:37:43.434Z,2.60
2022-10-07T06:42:46.481Z,2.50
2022-10-07T06:47:57.729Z,3.50
2022-10-07T06:52:59.908Z,2.57
2022-10-07T06:58:09.229Z,2.50
2022-10-07T07:03:14.412Z,2.63
2022-10-07T07:08:17.262Z,1.93
2022-10-07T07:13:19.344Z,2.40
2022-10-07T07:18:21.198Z,3.03
2022-10-07T07:23:24.664Z,2.20
2022-10-07T07:28:26.818Z,2.30
2022-10-07T07:33:29.039Z,2.33
2022-10-07T07:38:30.826Z,2.20
2022-10-07T07:43:32.594Z,2.37
2022-10-07T07:48:34.340Z,2.67
2022-10-07T07:53:37.522Z,2.00
2022-10-07T07:58:39.700Z,1.97
2022-10-07T08:03:43.498Z,2.20
2022-10-07T08:08:45.741Z,2.40
2022-10-07T08:13:48.765Z,2.30
2022-10-07T08:18:52.728Z,2.40
2022-10-07T08:23:57.489Z,2.60
2022-10-07T08:29:02.402Z,2.10
2022-10-07T08:34:06.473Z,2.20
2022-10-07T08:39:08.036Z,1.97
2022-10-07T08:44:26.499Z,2.08
2022-10-07T08:49:55.486Z,2.28
2022-10-07T08:54:57.086Z,2.00
2022-10-07T09:00:01.881Z,2.05
2022-10-07T09:05:05.821Z,2.13
2022-10-07T09:10:10.314Z,1.70
2022-10-07T09:15:20.048Z,1.75
2022-10-07T09:20:28.019Z,1.55
2022-10-07T09:25:31.039Z,1.85
2022-10-07T09:30:32.983Z,1.60
2022-10-07T09:35:35.116Z,1.67
2022-10-07T09:41:02.019Z,1.40
2022-10-07T09:46:03.850Z,1.80
2022-10-07T09:51:16.261Z,1.80
2022-10-07T09:56:40.989Z,1.63
2022-10-07T10:01:49.186Z,1.47
2022-10-07T10:06:52.308Z,1.43
2022-10-07T10:12:26.254Z,1.60
2022-10-07T10:17:38.770Z,1.50
2022-10-07T10:22:40.444Z,1.20
2022-10-07T10:27:50.783Z,1.37
2022-10-07T10:33:12.245Z,1.67
2022-10-07T10:38:23.310Z,1.17
2022-10-07T10:43:48.637Z,1.50
2022-10-07T10:49:10.587Z,1.43
2022-10-07T10:54:39.784Z,1.60
2022-10-07T11:00:02.679Z,1.97
2022-10-07T11:05:08.863Z,1.40
2022-10-07T11:10:26.397Z,1.57
2022-10-07T11:15:35.107Z,1.40
2022-10-07T11:20:44.412Z,1.43
2022-10-07T11:25:52.111Z,1.47
2022-10-07T11:31:34.041Z,1.43
2022-10-07T11:36:48.705Z,1.40
2022-10-07T11:41:58.351Z,1.10
2022-10-07T11:47:03.051Z,1.70
2022-10-07T11:52:08.107Z,1.47
2022-10-07T11:57:19.678Z,1.40
2022-10-07T12:02:38.123Z,1.10
2022-10-07T12:07:43.110Z,1.27
2022-10-07T12:12:45.266Z,0.90
2022-10-07T12:18:18.672Z,1.33
2022-10-07T12:23:25.665Z,1.30
2022-10-07T12:28:41.943Z,1.10
2022-10-07T12:33:46.534Z,1.03
2022-10-07T12:39:00.214Z,1.80
2022-10-07T12:44:07.807Z,1.53
2022-10-07T12:49:39.712Z,1.33
2022-10-07T12:54:54.485Z,1.30
2022-10-07T13:00:14.059Z,1.63
2022-10-07T13:05:37.329Z,1.40
2022-10-07T13:10:38.946Z,1.30
2022-10-07T13:15:53.427Z,1.00
2022-10-07T13:21:12.717Z,1.07
2022-10-07T13:26:15.240Z,1.20
2022-10-07T13:31:23.312Z,1.23
2022-10-07T13:36:30.149Z,1.73
2022-10-07T13:41:32.006Z,1.33
2022-10-07T13:46:35.236Z,1.20
2022-10-07T13:51:40.544Z,1.20
2022-10-07T13:56:42.516Z,1.13
2022-10-07T14:01:46.038Z,1.10
2022-10-07T14:06:58.532Z,1.37
2022-10-07T14:12:05.778Z,1.00
2022-10-07T14:17:11.034Z,0.80
2022-10-07T14:22:32.871Z,1.10
2022-10-07T14:27:41.844Z,1.37
2022-10-07T14:33:02.053Z,1.30
2022-10-07T14:38:19.907Z,1.73
2022-10-07T14:43:21.451Z,1.30
2022-10-07T14:48:23.024Z,0.87
2022-10-07T14:53:24.864Z,1.53
2022-10-07T14:58:26.838Z,1.50
2022-10-07T15:03:29.474Z,1.07
2022-10-07T15:08:31.654Z,1.30
2022-10-07T15:13:33.362Z,1.50
2022-10-07T15:18:35.777Z,1.30
2022-10-07T15:23:39.808Z,1.33
2022-10-07T15:28:41.484Z,1.23
2022-10-07T15:33:44.329Z,1.60
2022-10-07T15:38:45.906Z,1.20
2022-10-07T15:43:47.721Z,1.47
2022-10-07T15:48:49.211Z,1.50
2022-10-07T15:53:51.203Z,2.07
2022-10-07T15:58:55.768Z,1.70
2022-10-07T16:03:58.525Z,1.63
2022-10-07T16:09:00.998Z,1.33
2022-10-07T16:14:02.706Z,1.60
2022-10-07T16:19:04.954Z,1.47
2022-10-07T16:24:19.562Z,2.00
2022-10-07T16:29:40.900Z,1.70
2022-10-07T16:34:44.309Z,1.73
2022-10-07T16:39:45.854Z,2.20
2022-10-07T16:44:50.737Z,1.80
2022-10-07T16:49:52.669Z,2.20
2022-10-07T16:54:54.296Z,1.73
2022-10-07T16:59:56.035Z,1.47
2022-10-07T17:04:57.973Z,1.00
2022-10-07T17:09:59.522Z,1.40
2022-10-07T17:15:03.068Z,1.13
2022-10-07T17:20:11.580Z,1.60
2022-10-07T17:25:14.142Z,1.47
2022-10-07T17:30:16.615Z,1.70
2022-10-07T17:35:18.132Z,3.93
2022-10-07T17:40:20.016Z,1.90
2022-10-07T17:45:22.305Z,1.50
2022-10-07T17:50:24.284Z,1.17
2022-10-07T17:55:25.999Z,1.27
2022-10-07T18:00:27.607Z,2.37
2022-10-07T18:05:29.138Z,1.30
2022-10-07T18:10:31.282Z,1.47
2022-10-07T18:15:33.021Z,1.10
2022-10-07T18:20:36.900Z,1.50
2022-10-07T18:25:38.926Z,1.20
2022-10-07T18:30:40.739Z,1.50
2022-10-07T18:35:42.924Z,1.70
2022-10-07T18:40:44.570Z,1.50
2022-10-07T18:45:46.512Z,1.27
2022-10-07T18:50:52.076Z,1.60
2022-10-07T18:55:54.058Z,1.37
2022-10-07T19:00:55.926Z,1.30
2022-10-07T19:05:57.534Z,1.37
2022-10-07T19:11:13.211Z,1.17
2022-10-07T19:16:16.924Z,1.50
2022-10-07T19:21:20.214Z,1.50
2022-10-07T19:26:24.792Z,1.40
2022-10-07T19:31:32.161Z,1.80
2022-10-07T19:36:38.004Z,1.53
2022-10-07T19:41:41.097Z,1.27
2022-10-07T19:46:43.975Z,1.30
2022-10-07T19:51:45.588Z,1.37
2022-10-07T19:56:47.283Z,1.80
2022-10-07T20:01:49.710Z,1.43
2022-10-07T20:06:51.609Z,1.93
2022-10-07T20:11:53.345Z,1.70
2022-10-07T20:16:56.174Z,1.83
2022-10-07T20:22:01.110Z,1.97
2022-10-07T20:27:06.518Z,1.50
2022-10-07T20:32:08.280Z,1.90
2022-10-07T20:37:10.065Z,1.90
2022-10-07T20:42:25.772Z,1.90
2022-10-07T20:47:31.140Z,2.10
2022-10-07T20:52:35.337Z,2.10
2022-10-07T20:57:38.193Z,1.97
2022-10-07T21:02:40.104Z,2.00
2022-10-07T21:07:42.880Z,1.60
2022-10-07T21:12:45.040Z,1.70
2022-10-07T21:17:48.843Z,2.20
2022-10-07T21:22:51.999Z,1.80
2022-10-07T21:27:53.630Z,1.90
2022-10-07T21:32:55.164Z,1.93
2022-10-07T21:37:56.776Z,2.00
2022-10-07T21:42:58.286Z,1.70
2022-10-07T21:47:59.806Z,1.73
2022-10-07T21:53:01.300Z,2.17
2022-10-07T21:58:02.834Z,2.17
2022-10-07T22:03:04.411Z,2.10
2022-10-07T22:08:26.101Z,2.00
2022-10-07T22:13:28.439Z,1.83
2022-10-07T22:18:34.935Z,2.10
2022-10-07T22:23:36.877Z,2.30
2022-10-07T22:28:40.231Z,1.80
2022-10-07T22:33:42.608Z,1.80
2022-10-07T22:38:44.225Z,2.00
2022-10-07T22:43:47.663Z,2.23
2022-10-07T22:48:51.474Z,2.17
2022-10-07T22:53:54.588Z,2.60
2022-10-07T22:58:59.668Z,2.47
2022-10-07T23:04:03.385Z,2.23
2022-10-07T23:09:05.702Z,1.93
2022-10-07T23:14:07.373Z,1.87
2022-10-07T23:19:09.588Z,1.70
2022-10-07T23:24:11.319Z,1.93
2022-10-07T23:29:13.392Z,2.13
2022-10-07T23:34:15.282Z,2.27
2022-10-07T23:39:17.156Z,1.73
2022-10-07T23:44:18.933Z,1.50
2022-10-07T23:49:20.639Z,1.77
2022-10-07T23:54:22.198Z,2.00
2022-10-07T23:59:23.848Z,1.27
